createdAt,value
2019-04-21T05:24:16.523Z,10.50
2019-04-21T05:28:58.891Z,10.50
2019-04-21T05:34:22.158Z,10.50
2019-04-21T05:39:42.101Z,10.50
2019-04-21T05:44:59.829Z,10.60
2019-04-21T05:50:02.423Z,10.60
2019-04-21T05:55:09.597Z,10.70
2019-04-21T06:00:23.697Z,10.80
2019-04-21T06:10:34.913Z,10.90
2019-04-21T06:15:44.615Z,10.90
2019-04-21T06:20:51.632Z,11.10
2019-04-21T06:31:48.103Z,11.30
2019-04-21T06:37:04.369Z,11.40
2019-04-21T06:41:58.597Z,11.60
2019-04-21T06:47:16.180Z,11.70
2019-04-21T06:52:33.164Z,11.90
2019-04-21T06:57:22.060Z,12.00
2019-04-21T07:07:41.856Z,12.20
2019-04-21T07:12:43.083Z,12.40
2019-04-21T07:17:45.383Z,12.60
2019-04-21T07:22:54.169Z,12.70
2019-04-21T07:28:04.021Z,12.90
2019-04-21T07:33:21.935Z,13.10
2019-04-21T07:38:19.503Z,13.30
2019-04-21T07:43:17.658Z,13.50
2019-04-21T07:48:37.773Z,13.60
2019-04-21T07:53:57.810Z,13.80
2019-04-21T07:59:02.638Z,14.00
2019-04-21T08:04:14.767Z,14.30
2019-04-21T08:09:12.277Z,14.50
2019-04-21T08:14:24.023Z,14.70
2019-04-21T08:19:26.290Z,15.00
2019-04-21T08:24:35.089Z,15.20
2019-04-21T08:29:42.989Z,15.40
2019-04-21T08:34:55.138Z,15.60
2019-04-21T08:40:04.957Z,15.90
2019-04-21T08:44:52.484Z,16.30
2019-04-21T08:50:03.500Z,16.40
2019-04-21T08:55:12.228Z,16.60
2019-04-21T09:00:46.806Z,16.90
2019-04-21T09:05:49.362Z,17.00
2019-04-21T09:10:54.687Z,17.30
2019-04-21T09:15:58.088Z,17.50
2019-04-21T09:21:07.542Z,17.70
2019-04-21T09:26:14.115Z,18.00
2019-04-21T09:31:03.241Z,18.10
2019-04-21T09:36:08.578Z,18.30
2019-04-21T09:41:15.515Z,18.70
2019-04-21T09:46:16.706Z,18.90
2019-04-21T09:51:20.951Z,19.00
2019-04-21T09:56:35.964Z,19.20
2019-04-21T10:01:49.056Z,19.50
2019-04-21T10:06:39.954Z,19.70
2019-04-21T10:11:45.847Z,20.10
2019-04-21T10:16:57.254Z,20.40
2019-04-21T10:22:02.213Z,20.70
2019-04-21T10:27:08.563Z,21.00
2019-04-21T10:32:13.341Z,21.20
2019-04-21T10:37:18.798Z,21.50
2019-04-21T10:42:23.657Z,21.70
2019-04-21T10:47:29.342Z,21.90
2019-04-21T10:52:37.950Z,22.50
2019-04-21T10:57:44.388Z,22.80
2019-04-21T11:03:06.614Z,23.30
2019-04-21T11:08:22.626Z,23.80
2019-04-21T11:13:16.891Z,24.20
2019-04-21T11:18:21.916Z,24.30
2019-04-21T11:23:27.008Z,24.40
2019-04-21T11:28:31.330Z,25.30
2019-04-21T11:33:35.705Z,26.00
2019-04-21T11:38:58.426Z,26.20
2019-04-21T11:43:48.752Z,26.10
2019-04-21T11:48:54.610Z,26.40
2019-04-21T11:53:59.323Z,26.90
2019-04-21T11:59:03.889Z,27.40
2019-04-21T12:04:09.760Z,28.20
2019-04-21T12:09:14.708Z,28.50
2019-04-21T12:14:19.896Z,28.80
2019-04-21T12:19:25.031Z,29.30
2019-04-21T12:24:32.845Z,29.70
2019-04-21T12:29:37.785Z,29.90
2019-04-21T12:34:42.127Z,29.80
2019-04-21T12:39:46.349Z,30.20
2019-04-21T12:44:51.735Z,30.10
2019-04-21T12:49:56.974Z,30.40
2019-04-21T12:55:01.748Z,30.30
2019-04-21T13:00:09.000Z,30.20
2019-04-21T13:05:13.582Z,30.40
2019-04-21T13:10:18.296Z,31.40
2019-04-21T13:15:22.676Z,31.90
2019-04-21T13:20:27.455Z,31.80
2019-04-21T13:25:31.821Z,31.90
2019-04-21T13:30:36.256Z,32.20
2019-04-21T13:35:41.333Z,32.30
2019-04-21T13:41:12.163Z,32.40
2019-04-21T13:46:01.853Z,32.10
2019-04-21T13:51:07.145Z,32.10
2019-04-21T13:56:11.443Z,32.20
2019-04-21T14:01:16.030Z,32.10
2019-04-21T14:06:20.509Z,31.60
2019-04-21T14:11:25.151Z,31.60
2019-04-21T14:16:29.765Z,31.40
2019-04-21T14:21:34.220Z,31.20
2019-04-21T14:26:38.628Z,31.50
2019-04-21T14:31:44.250Z,31.90
2019-04-21T14:36:48.594Z,31.70
2019-04-21T14:41:53.843Z,31.20
2019-04-21T14:47:05.319Z,30.50
2019-04-21T14:52:19.015Z,30.60
2019-04-21T14:57:23.299Z,30.80
2019-04-21T15:02:27.785Z,30.90
2019-04-21T15:07:33.079Z,30.30
2019-04-21T15:12:37.969Z,30.10
2019-04-21T15:17:44.123Z,29.30
2019-04-21T15:22:48.472Z,29.10
2019-04-21T15:27:52.874Z,29.10
2019-04-21T15:32:58.112Z,29.60
2019-04-21T15:38:02.442Z,30.30
2019-04-21T15:43:06.661Z,30.40
2019-04-21T15:48:12.006Z,30.40
2019-04-21T15:53:21.621Z,30.70
2019-04-21T15:58:28.355Z,30.60
2019-04-21T16:03:32.752Z,30.40
2019-04-21T16:08:37.377Z,30.00
2019-04-21T16:13:41.749Z,29.30
2019-04-21T16:18:46.111Z,28.40
2019-04-21T16:23:50.739Z,27.90
2019-04-21T16:28:57.440Z,27.80
2019-04-21T16:34:02.992Z,27.60
2019-04-21T16:39:07.759Z,27.00
2019-04-21T16:44:13.307Z,26.50
2019-04-21T16:49:17.995Z,26.00
2019-04-21T16:54:24.045Z,25.80
2019-04-21T16:59:30.596Z,25.50
2019-04-21T17:04:36.333Z,25.30
2019-04-21T17:09:40.912Z,25.00
2019-04-21T17:15:01.533Z,24.50
2019-04-21T17:19:55.612Z,24.20
2019-04-21T17:24:58.263Z,24.00
2019-04-21T17:30:04.328Z,23.80
2019-04-21T17:35:10.060Z,23.80
2019-04-21T17:40:21.837Z,23.60
2019-04-21T17:45:26.916Z,23.40
2019-04-21T17:50:45.449Z,23.20
2019-04-21T17:56:06.356Z,23.10
2019-04-21T18:01:20.874Z,22.90
2019-04-21T18:06:20.936Z,22.70
2019-04-21T18:11:22.397Z,22.50
2019-04-21T18:16:25.067Z,22.40
2019-04-21T18:21:23.048Z,22.20
2019-04-21T18:26:38.005Z,22.10
2019-04-21T18:31:42.729Z,21.90
2019-04-21T18:36:51.713Z,21.80
2019-04-21T18:42:17.167Z,21.60
2019-04-21T18:47:25.665Z,21.50
2019-04-21T18:52:22.402Z,21.30
2019-04-21T18:57:30.926Z,21.20
2019-04-21T19:02:28.043Z,21.00
2019-04-21T19:07:58.319Z,20.90
2019-04-21T19:20:04.693Z,20.60
2019-04-21T20:27:03.613Z,18.90
2019-04-21T21:22:14.467Z,17.80
2019-04-21T21:27:31.105Z,17.70
2019-04-21T21:32:41.199Z,17.60
2019-04-21T21:38:09.939Z,17.50
2019-04-21T21:43:12.895Z,17.40
2019-04-21T21:48:36.668Z,17.30
2019-04-21T22:00:23.943Z,17.20
2019-04-21T22:18:36.246Z,17.00
2019-04-21T22:48:26.287Z,16.80
